createdAt,value
2023-03-28T00:01:02.169Z,62.30
2023-03-28T00:03:29.963Z,63.00
2023-03-28T00:06:00.949Z,64.10
2023-03-28T00:08:29.265Z,64.30
2023-03-28T00:11:09.351Z,65.00
2023-03-28T00:13:37.661Z,65.20
2023-03-28T00:16:08.931Z,65.40
2023-03-28T00:18:39.307Z,65.00
2023-03-28T00:21:23.662Z,64.00
2023-03-28T00:23:53.447Z,65.30
2023-03-28T00:26:24.745Z,64.10
2023-03-28T00:28:53.050Z,63.00
2023-03-28T00:31:20.789Z,62.60
2023-03-28T00:33:48.460Z,61.30
2023-03-28T00:36:22.903Z,62.00
2023-03-28T00:38:52.145Z,62.20
2023-03-28T00:41:23.287Z,63.60
2023-03-28T00:43:53.926Z,65.00
2023-03-28T00:46:29.925Z,65.40
2023-03-28T00:49:02.666Z,66.80
2023-03-28T00:51:34.098Z,68.50
2023-03-28T00:54:03.181Z,68.70
2023-03-28T00:56:34.238Z,69.50
2023-03-28T00:59:11.814Z,70.60
2023-03-28T01:01:39.574Z,71.20
2023-03-28T01:04:10.321Z,71.70
2023-03-28T01:06:46.374Z,72.20
2023-03-28T01:09:17.909Z,72.70
2023-03-28T01:11:50.076Z,72.10
2023-03-28T01:14:21.399Z,72.10
2023-03-28T01:16:51.311Z,72.00
2023-03-28T01:19:30.023Z,72.30
2023-03-28T01:22:32.896Z,71.70
2023-03-28T01:25:02.985Z,72.20
2023-03-28T01:27:52.258Z,73.00
2023-03-28T01:30:49.749Z,73.10
2023-03-28T01:34:20.374Z,73.20
2023-03-28T01:37:42.287Z,72.60
2023-03-28T01:40:38.448Z,72.70
2023-03-28T01:43:16.444Z,71.50
2023-03-28T01:46:20.323Z,71.00
2023-03-28T01:48:56.723Z,71.10
2023-03-28T01:51:36.344Z,71.50
2023-03-28T01:54:16.624Z,71.30
2023-03-28T01:56:53.342Z,71.40
2023-03-28T01:59:37.281Z,71.30
2023-03-28T02:02:52.464Z,71.70
2023-03-28T02:05:28.378Z,73.00
2023-03-28T02:07:57.404Z,72.30
2023-03-28T02:10:53.127Z,72.60
2023-03-28T02:13:32.752Z,74.00
2023-03-28T02:16:24.611Z,74.50
2023-03-28T02:19:10.075Z,75.30
2023-03-28T02:22:05.937Z,75.50
2023-03-28T02:24:33.294Z,75.30
2023-03-28T02:27:14.172Z,74.10
2023-03-28T02:30:01.855Z,73.30
2023-03-28T02:32:35.866Z,72.90
2023-03-28T02:35:05.841Z,73.40
2023-03-28T02:37:56.014Z,73.70
2023-03-28T02:40:57.838Z,73.50
2023-03-28T02:43:56.222Z,73.10
2023-03-28T02:46:30.001Z,73.10
2023-03-28T02:49:37.526Z,72.40
2023-03-28T02:52:21.826Z,72.20
2023-03-28T02:55:01.443Z,69.10
2023-03-28T02:57:55.376Z,66.50
2023-03-28T03:00:23.189Z,66.80
2023-03-28T03:02:52.174Z,66.90
2023-03-28T03:05:21.345Z,67.50
2023-03-28T03:07:52.635Z,66.90
2023-03-28T03:10:22.042Z,65.70
2023-03-28T03:12:49.781Z,65.60
2023-03-28T03:15:17.591Z,65.20
2023-03-28T03:17:47.604Z,65.00
2023-03-28T03:20:16.091Z,65.40
2023-03-28T03:22:44.676Z,65.30
2023-03-28T03:25:14.376Z,65.70
2023-03-28T03:28:03.333Z,65.20
2023-03-28T03:30:31.376Z,66.00
2023-03-28T03:33:21.389Z,66.50
2023-03-28T03:35:53.937Z,66.80
2023-03-28T03:38:21.909Z,66.40
2023-03-28T03:40:49.649Z,65.50
2023-03-28T03:43:18.158Z,65.90
2023-03-28T03:45:46.253Z,65.90
2023-03-28T03:48:13.674Z,68.00
2023-03-28T03:50:41.721Z,69.70
2023-03-28T03:53:16.652Z,69.60
2023-03-28T03:56:07.726Z,71.00
2023-03-28T03:58:51.496Z,71.10
2023-03-28T04:01:19.733Z,71.50
2023-03-28T04:03:48.322Z,75.10
2023-03-28T04:06:23.886Z,74.40
2023-03-28T04:08:54.111Z,75.80
2023-03-28T04:11:38.010Z,76.90
2023-03-28T04:14:05.680Z,77.60
2023-03-28T04:16:40.828Z,78.50
2023-03-28T04:19:11.097Z,79.10
2023-03-28T04:21:42.466Z,79.50
2023-03-28T04:24:09.956Z,78.40
2023-03-28T04:26:45.976Z,74.50
2023-03-28T04:29:13.877Z,76.70
2023-03-28T04:31:50.466Z,76.80
2023-03-28T04:34:30.417Z,78.80
2023-03-28T04:37:09.061Z,76.50
2023-03-28T04:39:48.867Z,74.10
2023-03-28T04:42:35.663Z,71.80
2023-03-28T04:45:19.016Z,71.80
2023-03-28T04:47:48.667Z,71.40
2023-03-28T04:50:18.184Z,69.70
2023-03-28T04:52:45.835Z,70.20
2023-03-28T04:55:16.207Z,71.00
2023-03-28T04:57:44.257Z,73.00
2023-03-28T05:00:13.318Z,72.70
2023-03-28T05:03:00.178Z,72.40
2023-03-28T05:05:30.924Z,72.60
2023-03-28T05:07:59.141Z,72.80
2023-03-28T05:10:26.582Z,73.70
2023-03-28T05:12:58.630Z,73.70
2023-03-28T05:15:27.328Z,72.60
2023-03-28T05:18:05.439Z,72.20
2023-03-28T05:20:37.464Z,71.90
2023-03-28T05:23:08.915Z,71.60
2023-03-28T05:25:39.997Z,71.90
2023-03-28T05:28:08.757Z,73.40
2023-03-28T05:30:44.808Z,72.80
2023-03-28T05:33:12.290Z,72.50
2023-03-28T05:35:40.457Z,71.30
2023-03-28T05:38:07.879Z,69.70
2023-03-28T05:40:37.434Z,69.50
2023-03-28T05:43:05.160Z,68.80
2023-03-28T05:45:34.031Z,68.80
2023-03-28T05:48:13.552Z,68.60
2023-03-28T05:50:42.426Z,68.30
2023-03-28T05:53:09.856Z,68.60
2023-03-28T05:55:37.535Z,68.70
2023-03-28T05:58:06.381Z,69.50
2023-03-28T06:00:37.913Z,69.70
2023-03-28T06:03:07.478Z,69.40
2023-03-28T06:05:37.646Z,69.60
2023-03-28T06:08:11.863Z,69.80
2023-03-28T06:10:39.380Z,70.40
2023-03-28T06:13:19.548Z,69.90
2023-03-28T06:15:48.630Z,70.70
2023-03-28T06:18:17.497Z,71.80
2023-03-28T06:20:47.132Z,73.60
2023-03-28T06:23:14.572Z,72.00
2023-03-28T06:25:42.354Z,72.70
2023-03-28T06:28:09.870Z,73.10
2023-03-28T06:30:57.272Z,70.30
2023-03-28T06:33:27.794Z,65.60
2023-03-28T06:35:56.123Z,63.60
2023-03-28T06:38:24.696Z,62.10
2023-03-28T06:40:53.183Z,60.60
2023-03-28T06:43:20.667Z,58.90
2023-03-28T06:46:04.546Z,57.80
2023-03-28T06:48:35.775Z,58.20
2023-03-28T06:51:24.644Z,58.80
2023-03-28T06:53:52.357Z,58.80
2023-03-28T06:56:25.147Z,56.30
2023-03-28T06:58:52.607Z,55.70
2023-03-28T07:01:24.830Z,53.80
2023-03-28T07:04:07.941Z,54.40
2023-03-28T07:06:36.722Z,54.30
2023-03-28T07:09:06.498Z,53.80
2023-03-28T07:11:54.563Z,55.30
2023-03-28T07:14:23.332Z,56.20
2023-03-28T07:16:50.894Z,55.80
2023-03-28T07:19:18.620Z,55.00
2023-03-28T07:21:48.319Z,53.90
2023-03-28T07:24:16.181Z,53.80
2023-03-28T07:27:01.338Z,52.30
2023-03-28T07:29:35.414Z,52.20
2023-03-28T07:32:03.158Z,52.70
2023-03-28T07:34:30.610Z,52.30
2023-03-28T07:36:59.644Z,52.10
2023-03-28T07:39:54.542Z,51.30
2023-03-28T07:42:23.944Z,52.70
2023-03-28T07:44:51.343Z,51.10
2023-03-28T07:47:18.790Z,49.80
2023-03-28T07:49:47.281Z,48.10
2023-03-28T07:52:14.842Z,48.70
2023-03-28T07:54:42.244Z,49.30
2023-03-28T07:57:09.743Z,49.30
2023-03-28T07:59:46.267Z,47.90
2023-03-28T08:02:15.709Z,47.50
2023-03-28T08:04:43.236Z,47.90
2023-03-28T08:07:12.788Z,47.00
2023-03-28T08:09:43.144Z,47.80
2023-03-28T08:12:21.723Z,47.90
2023-03-28T08:14:49.130Z,47.30
2023-03-28T08:17:22.839Z,47.50
2023-03-28T08:19:51.785Z,46.70
2023-03-28T08:22:39.401Z,48.00
2023-03-28T08:25:22.493Z,47.70
2023-03-28T08:27:50.844Z,46.90
2023-03-28T08:30:18.642Z,46.40
2023-03-28T08:32:54.479Z,46.30
2023-03-28T08:35:22.075Z,43.20
2023-03-28T08:37:52.903Z,44.40
2023-03-28T08:40:21.088Z,45.40
2023-03-28T08:43:19.990Z,44.20
2023-03-28T08:45:52.730Z,43.60
2023-03-28T08:48:28.490Z,42.70
2023-03-28T08:51:06.690Z,43.10
2023-03-28T08:53:43.877Z,43.20
2023-03-28T08:56:15.978Z,42.10
2023-03-28T08:59:05.881Z,42.70
2023-03-28T09:01:36.038Z,42.20
2023-03-28T09:04:04.404Z,40.60
2023-03-28T09:06:43.294Z,39.80
2023-03-28T09:09:32.328Z,39.00
2023-03-28T09:12:38.428Z,38.80
2023-03-28T09:15:24.201Z,38.70
2023-03-28T09:18:11.591Z,39.00
2023-03-28T09:21:02.483Z,40.90
2023-03-28T09:24:02.060Z,39.80
2023-03-28T09:26:55.757Z,38.60
2023-03-28T09:29:26.001Z,38.80
2023-03-28T09:32:01.894Z,37.40
2023-03-28T09:34:51.215Z,37.20
2023-03-28T09:37:38.053Z,36.80
2023-03-28T09:40:28.633Z,37.00
2023-03-28T09:43:27.923Z,36.60
2023-03-28T09:46:11.359Z,36.90
2023-03-28T09:48:48.225Z,37.40
2023-03-28T09:51:19.973Z,37.70
2023-03-28T09:53:48.314Z,37.20
2023-03-28T09:56:34.285Z,37.90
2023-03-28T09:59:28.922Z,38.90
2023-03-28T10:02:00.844Z,40.00
2023-03-28T10:04:39.239Z,39.40
2023-03-28T10:07:09.935Z,38.60
2023-03-28T10:09:54.068Z,38.20
2023-03-28T10:12:32.417Z,38.30
2023-03-28T10:15:00.238Z,38.10
2023-03-28T10:17:50.964Z,37.60
2023-03-28T10:20:24.883Z,37.10
2023-03-28T10:22:57.276Z,38.50
2023-03-28T10:25:42.361Z,39.90
2023-03-28T10:28:36.850Z,39.20
2023-03-28T10:31:05.630Z,38.20
2023-03-28T10:33:42.687Z,38.60
2023-03-28T10:36:41.554Z,39.70
2023-03-28T10:39:26.359Z,39.40
2023-03-28T10:42:11.979Z,39.30
2023-03-28T10:45:00.152Z,38.80
2023-03-28T10:47:30.532Z,39.70
2023-03-28T10:50:40.788Z,40.40
2023-03-28T10:53:39.637Z,39.80
2023-03-28T10:56:19.837Z,40.30
2023-03-28T10:59:13.731Z,39.60
2023-03-28T11:01:49.330Z,38.80
2023-03-28T11:04:22.854Z,40.50
2023-03-28T11:07:01.126Z,39.70
2023-03-28T11:10:12.816Z,39.70
2023-03-28T11:13:19.235Z,42.00
2023-03-28T11:16:34.168Z,44.00
2023-03-28T11:19:52.930Z,44.20
2023-03-28T11:22:33.271Z,45.70
2023-03-28T11:25:34.032Z,44.70
2023-03-28T11:28:37.846Z,43.00
2023-03-28T11:31:20.511Z,43.70
2023-03-28T11:34:18.489Z,44.80
2023-03-28T11:36:53.441Z,45.30
2023-03-28T11:40:11.650Z,46.80
2023-03-28T11:43:03.461Z,42.60
2023-03-28T11:46:08.008Z,41.20
2023-03-28T11:48:53.999Z,39.20
2023-03-28T11:51:51.703Z,37.20
2023-03-28T11:55:09.375Z,39.20
2023-03-28T11:57:59.745Z,40.60
2023-03-28T12:00:36.576Z,40.30
2023-03-28T12:03:19.617Z,41.00
2023-03-28T12:05:54.578Z,39.70
2023-03-28T12:08:33.859Z,40.20
2023-03-28T12:11:15.159Z,40.20
2023-03-28T12:14:26.092Z,39.30
2023-03-28T12:16:55.513Z,39.20
2023-03-28T12:19:34.289Z,39.50
2023-03-28T12:22:26.483Z,38.30
2023-03-28T12:25:04.114Z,37.30
2023-03-28T12:27:57.559Z,39.40
2023-03-28T12:31:11.509Z,39.40
2023-03-28T12:34:18.148Z,39.20
2023-03-28T12:37:12.104Z,39.60
2023-03-28T12:40:08.183Z,41.40
2023-03-28T12:42:36.773Z,40.80
2023-03-28T12:45:09.575Z,40.40
2023-03-28T12:47:42.797Z,40.60
2023-03-28T12:50:18.236Z,40.70
2023-03-28T12:52:47.085Z,40.10
2023-03-28T12:55:24.811Z,40.80
2023-03-28T12:58:11.075Z,40.40
2023-03-28T13:01:07.212Z,39.50
2023-03-28T13:04:06.346Z,41.00
2023-03-28T13:07:18.269Z,40.80
2023-03-28T13:09:57.038Z,39.90
2023-03-28T13:12:45.651Z,40.40
2023-03-28T13:15:16.264Z,40.10
2023-03-28T13:18:07.003Z,40.60
2023-03-28T13:20:34.629Z,40.70
2023-03-28T13:23:07.492Z,42.90
2023-03-28T13:25:35.904Z,43.10
2023-03-28T13:28:12.340Z,43.00
2023-03-28T13:30:44.807Z,41.50
2023-03-28T13:33:28.357Z,40.90
2023-03-28T13:35:58.818Z,40.20
2023-03-28T13:38:29.395Z,40.10
2023-03-28T13:41:06.516Z,40.10
2023-03-28T13:43:41.918Z,39.60
2023-03-28T13:46:13.520Z,39.10
2023-03-28T13:48:46.908Z,41.10
2023-03-28T13:51:20.276Z,40.40
2023-03-28T13:53:48.930Z,40.90
2023-03-28T13:56:23.586Z,40.00
2023-03-28T13:58:53.547Z,40.80
2023-03-28T14:01:26.967Z,39.40
2023-03-28T14:03:55.312Z,37.70
2023-03-28T14:06:30.578Z,38.40
2023-03-28T14:09:02.387Z,39.60
2023-03-28T14:11:35.837Z,37.40
2023-03-28T14:14:09.634Z,37.50
2023-03-28T14:16:38.140Z,40.30
2023-03-28T14:19:06.537Z,41.30
2023-03-28T14:21:35.500Z,41.00
2023-03-28T14:24:06.357Z,41.10
2023-03-28T14:26:37.387Z,42.00
2023-03-28T14:29:12.959Z,42.50
2023-03-28T14:31:46.156Z,42.90
2023-03-28T14:34:35.243Z,42.90
2023-03-28T14:37:14.502Z,42.80
2023-03-28T14:39:42.324Z,42.70
2023-03-28T14:42:17.938Z,43.70
2023-03-28T14:44:50.632Z,44.40
2023-03-28T14:47:30.265Z,45.50
2023-03-28T14:49:58.253Z,45.30
2023-03-28T14:52:29.714Z,45.40
2023-03-28T14:54:58.673Z,46.50
2023-03-28T14:57:26.923Z,46.30
2023-03-28T14:59:57.032Z,45.80
2023-03-28T15:02:33.960Z,46.70
2023-03-28T15:05:07.088Z,46.80
2023-03-28T15:07:36.536Z,47.30
2023-03-28T15:10:22.385Z,47.70
2023-03-28T15:13:12.836Z,47.20
2023-03-28T15:15:46.083Z,46.10
2023-03-28T15:18:25.196Z,46.40
2023-03-28T15:20:55.506Z,46.70
2023-03-28T15:23:29.349Z,46.40
2023-03-28T15:26:00.685Z,47.20
2023-03-28T15:28:29.736Z,46.80
2023-03-28T15:31:00.784Z,46.80
2023-03-28T15:33:33.967Z,47.10
2023-03-28T15:36:32.458Z,46.90
2023-03-28T15:39:02.532Z,46.80
2023-03-28T15:41:46.059Z,47.40
2023-03-28T15:44:34.789Z,48.70
2023-03-28T15:47:09.781Z,47.80
2023-03-28T15:49:38.226Z,48.10
2023-03-28T15:52:14.313Z,47.20
2023-03-28T15:54:44.704Z,47.30
2023-03-28T15:57:14.619Z,48.20
2023-03-28T15:59:48.480Z,48.60
2023-03-28T16:02:24.899Z,48.00
2023-03-28T16:05:34.906Z,48.10
2023-03-28T16:08:21.414Z,47.20
2023-03-28T16:10:48.916Z,47.90
2023-03-28T16:13:34.668Z,49.00
2023-03-28T16:16:06.359Z,49.00
2023-03-28T16:18:49.828Z,49.40
2023-03-28T16:21:17.502Z,49.30
2023-03-28T16:23:45.295Z,49.40
2023-03-28T16:26:13.810Z,49.40
2023-03-28T16:28:41.291Z,50.10
2023-03-28T16:31:15.707Z,50.00
2023-03-28T16:33:43.120Z,50.80
2023-03-28T16:36:12.319Z,51.10
2023-03-28T16:38:39.908Z,51.40
2023-03-28T16:41:07.403Z,52.20
2023-03-28T16:43:34.928Z,51.50
2023-03-28T16:46:02.995Z,51.80
2023-03-28T16:48:32.433Z,52.40
2023-03-28T16:51:05.014Z,51.80
2023-03-28T16:53:33.664Z,52.30
2023-03-28T16:56:01.760Z,53.60
2023-03-28T16:58:29.804Z,54.40
2023-03-28T17:00:57.385Z,54.70
2023-03-28T17:03:24.938Z,55.30
2023-03-28T17:05:52.482Z,55.90
2023-03-28T17:08:20.020Z,56.60
2023-03-28T17:10:47.604Z,57.00
2023-03-28T17:13:15.536Z,57.40
2023-03-28T17:15:43.549Z,57.50
2023-03-28T17:18:11.044Z,57.90
2023-03-28T17:20:38.500Z,58.20
2023-03-28T17:23:05.885Z,58.50
2023-03-28T17:25:41.639Z,59.20
2023-03-28T17:28:12.248Z,59.70
2023-03-28T17:30:39.979Z,60.50
2023-03-28T17:33:07.602Z,60.70
2023-03-28T17:35:34.995Z,61.50
2023-03-28T17:38:02.751Z,61.90
2023-03-28T17:40:30.216Z,62.20
2023-03-28T17:42:57.560Z,62.60
2023-03-28T17:45:26.456Z,63.40
2023-03-28T17:47:54.212Z,64.70
2023-03-28T17:50:22.382Z,65.00
2023-03-28T17:52:49.810Z,66.00
2023-03-28T17:55:17.420Z,66.20
2023-03-28T17:57:45.077Z,67.10
2023-03-28T18:00:13.708Z,66.50
2023-03-28T18:02:46.060Z,66.70
2023-03-28T18:05:33.605Z,68.00
2023-03-28T18:08:01.490Z,69.30
2023-03-28T18:10:28.869Z,70.50
2023-03-28T18:12:56.479Z,72.50
2023-03-28T18:15:24.139Z,73.90
2023-03-28T18:17:52.030Z,74.40
2023-03-28T18:20:19.634Z,75.20
2023-03-28T18:22:46.988Z,75.60
2023-03-28T18:25:14.564Z,75.80
2023-03-28T18:27:41.937Z,75.90
2023-03-28T18:30:09.739Z,74.50
2023-03-28T18:32:37.254Z,74.20
2023-03-28T18:35:07.195Z,73.50
2023-03-28T18:37:34.913Z,73.60
2023-03-28T18:40:05.712Z,73.00
2023-03-28T18:42:33.361Z,73.00
2023-03-28T18:45:01.019Z,72.80
2023-03-28T18:47:28.618Z,73.40
2023-03-28T18:49:55.972Z,73.50
2023-03-28T18:52:23.356Z,74.00
2023-03-28T18:54:51.101Z,74.00
2023-03-28T18:57:18.578Z,74.60
2023-03-28T18:59:46.138Z,74.80
2023-03-28T19:02:16.526Z,74.30
2023-03-28T19:04:44.171Z,74.50
2023-03-28T19:07:13.361Z,75.20
2023-03-28T19:09:41.170Z,75.80
2023-03-28T19:12:08.758Z,75.00
2023-03-28T19:14:36.184Z,75.20
2023-03-28T19:17:03.665Z,75.90
2023-03-28T19:19:37.176Z,75.40
2023-03-28T19:22:06.476Z,75.70
2023-03-28T19:24:34.047Z,77.60
2023-03-28T19:27:03.210Z,76.90
2023-03-28T19:29:32.207Z,77.50
2023-03-28T19:31:59.569Z,77.30
2023-03-28T19:34:28.015Z,77.50
2023-03-28T19:36:55.648Z,77.40
2023-03-28T19:39:23.150Z,78.20
2023-03-28T19:41:50.518Z,78.70
2023-03-28T19:44:17.940Z,78.20
2023-03-28T19:46:46.057Z,79.10
2023-03-28T19:49:15.323Z,79.60
2023-03-28T19:51:42.842Z,79.80
2023-03-28T19:54:10.242Z,80.30
2023-03-28T19:56:37.681Z,80.70
2023-03-28T19:59:05.285Z,81.10
2023-03-28T20:01:32.685Z,81.50
2023-03-28T20:04:00.300Z,80.90
2023-03-28T20:06:27.944Z,81.00
2023-03-28T20:08:55.320Z,80.60
2023-03-28T20:11:25.130Z,81.10
2023-03-28T20:13:52.563Z,80.60
2023-03-28T20:16:20.061Z,80.30
2023-03-28T20:18:48.314Z,80.20
2023-03-28T20:21:16.067Z,78.80
2023-03-28T20:23:43.511Z,79.10
2023-03-28T20:26:15.006Z,79.00
2023-03-28T20:28:42.487Z,77.50
2023-03-28T20:31:12.181Z,77.40
2023-03-28T20:33:40.878Z,77.40
2023-03-28T20:36:08.873Z,77.30
2023-03-28T20:38:36.321Z,76.80
2023-03-28T20:41:04.169Z,76.20
2023-03-28T20:43:36.799Z,75.70
2023-03-28T20:46:04.979Z,75.20
2023-03-28T20:48:36.481Z,74.70
2023-03-28T20:51:14.006Z,75.70
2023-03-28T20:53:47.630Z,75.50
2023-03-28T20:56:16.039Z,75.00
2023-03-28T20:58:47.127Z,75.50
2023-03-28T21:01:17.607Z,75.50
2023-03-28T21:03:55.255Z,75.20
2023-03-28T21:06:25.988Z,74.80
2023-03-28T21:08:55.304Z,74.90
2023-03-28T21:11:28.887Z,74.90
2023-03-28T21:13:57.491Z,74.60
2023-03-28T21:16:26.465Z,74.80
2023-03-28T21:18:54.041Z,74.40
2023-03-28T21:21:21.730Z,74.30
2023-03-28T21:23:49.611Z,74.70
2023-03-28T21:26:19.036Z,75.20
2023-03-28T21:28:47.430Z,74.80
2023-03-28T21:31:19.876Z,74.80
2023-03-28T21:33:52.924Z,74.80
2023-03-28T21:36:21.419Z,75.10
2023-03-28T21:38:49.169Z,75.30
2023-03-28T21:41:17.182Z,75.00
2023-03-28T21:43:44.721Z,75.30
2023-03-28T21:46:12.105Z,75.20
2023-03-28T21:48:39.573Z,75.40
2023-03-28T21:51:06.929Z,75.90
2023-03-28T21:53:37.063Z,76.00
2023-03-28T21:56:06.655Z,75.70
2023-03-28T21:58:34.727Z,75.90
2023-03-28T22:01:03.943Z,75.70
2023-03-28T22:03:31.918Z,75.70
2023-03-28T22:05:59.413Z,75.30
2023-03-28T22:08:27.249Z,75.00
2023-03-28T22:11:02.323Z,74.70
2023-03-28T22:13:30.714Z,74.90
2023-03-28T22:15:59.798Z,74.60
2023-03-28T22:18:28.334Z,74.40
2023-03-28T22:20:55.758Z,75.00
2023-03-28T22:23:23.919Z,76.60
2023-03-28T22:25:53.044Z,77.80
2023-03-28T22:28:24.430Z,78.90
2023-03-28T22:30:58.022Z,79.10
2023-03-28T22:33:25.751Z,79.50
2023-03-28T22:35:53.456Z,78.50
2023-03-28T22:38:20.930Z,81.80
2023-03-28T22:40:48.344Z,82.00
2023-03-28T22:43:16.481Z,82.60
2023-03-28T22:45:43.944Z,82.40
2023-03-28T22:48:15.074Z,82.50
2023-03-28T22:50:47.208Z,82.90
2023-03-28T22:53:14.914Z,82.40
2023-03-28T22:55:43.881Z,82.50
2023-03-28T22:58:12.562Z,83.10
2023-03-28T23:00:40.221Z,83.90
2023-03-28T23:03:08.102Z,85.00
2023-03-28T23:05:36.755Z,85.50
2023-03-28T23:08:08.052Z,85.30
2023-03-28T23:10:35.812Z,84.50
2023-03-28T23:13:03.222Z,84.60
2023-03-28T23:15:30.639Z,84.80
2023-03-28T23:17:58.654Z,84.80
2023-03-28T23:20:26.619Z,84.90
2023-03-28T23:22:53.996Z,85.00
2023-03-28T23:25:22.315Z,84.50
2023-03-28T23:27:49.850Z,84.20
2023-03-28T23:30:17.454Z,83.20
2023-03-28T23:32:45.066Z,82.80
2023-03-28T23:35:12.449Z,82.40
2023-03-28T23:37:40.318Z,83.10
2023-03-28T23:40:14.850Z,82.00
2023-03-28T23:42:44.738Z,83.20
2023-03-28T23:45:14.922Z,82.30
2023-03-28T23:47:43.992Z,82.20
2023-03-28T23:50:11.690Z,82.40
2023-03-28T23:52:39.879Z,82.60
2023-03-28T23:55:08.741Z,82.50
2023-03-28T23:57:36.660Z,81.90
